createdAt,value
2022-11-20T00:07:37.456Z,101210.09
2022-11-20T00:17:41.806Z,101213.06
2022-11-20T00:27:44.933Z,101205.97
2022-11-20T00:37:49.182Z,101203.44
2022-11-20T00:47:52.043Z,101207.16
2022-11-20T00:57:56.453Z,101206.53
2022-11-20T01:07:59.383Z,101201.34
2022-11-20T01:18:03.781Z,101206.56
2022-11-20T01:28:06.681Z,101218.81
2022-11-20T01:38:11.086Z,101198.03
2022-11-20T01:48:14.207Z,101197.41
2022-11-20T01:58:22.190Z,101206.41
2022-11-20T02:08:26.496Z,101199.31
2022-11-20T02:18:32.100Z,101187.88
2022-11-20T02:28:36.835Z,101184.09
2022-11-20T02:38:40.590Z,101179.88
2022-11-20T02:48:44.940Z,101188.75
2022-11-20T02:58:48.123Z,101181.09
2022-11-20T03:08:52.467Z,101179.66
2022-11-20T03:18:55.612Z,101167.53
2022-11-20T03:29:01.406Z,101162.06
2022-11-20T03:39:04.508Z,101151.97
2022-11-20T03:49:08.866Z,101125.34
2022-11-20T03:59:12.732Z,101119.31
2022-11-20T04:09:17.551Z,101125.19
2022-11-20T04:19:20.837Z,101120.94
2022-11-20T04:29:25.370Z,101108.53
2022-11-20T04:39:28.273Z,101118.47
2022-11-20T04:49:32.918Z,101101.84
2022-11-20T04:59:35.830Z,101103.91
2022-11-20T05:09:40.263Z,101101.03
2022-11-20T05:19:43.200Z,101079.81
2022-11-20T05:29:47.481Z,101066.81
2022-11-20T05:39:50.453Z,101063.81
2022-11-20T05:49:54.807Z,101083.28
2022-11-20T05:59:57.732Z,101098.69
2022-11-20T06:10:02.012Z,101101.81
2022-11-20T06:20:05.444Z,101102.03
2022-11-20T06:30:11.532Z,101101.69
2022-11-20T06:40:14.921Z,101085.91
2022-11-20T06:50:19.261Z,101082.03
2022-11-20T07:00:22.270Z,101087.41
2022-11-20T07:10:26.907Z,101092.47
2022-11-20T07:20:30.315Z,101072.38
2022-11-20T07:30:34.762Z,101076.31
2022-11-20T07:40:37.749Z,101056.47
2022-11-20T07:50:42.064Z,101066.09
2022-11-20T08:00:45.052Z,101074.69
2022-11-20T08:10:49.375Z,101068.31
2022-11-20T08:20:52.447Z,101078.31
2022-11-20T08:31:01.455Z,101077.50
2022-11-20T08:41:23.878Z,101063.38
2022-11-20T08:51:28.150Z,101064.53
2022-11-20T09:01:32.038Z,101062.94
2022-11-20T09:11:37.124Z,101054.22
2022-11-20T09:21:40.066Z,101047.94
2022-11-20T09:31:44.302Z,101026.25
2022-11-20T09:42:02.628Z,101010.25
2022-11-20T09:52:22.670Z,101005.72
2022-11-20T10:02:31.597Z,100985.44
2022-11-20T10:12:56.837Z,100957.41
2022-11-20T10:23:07.500Z,100931.97
2022-11-20T10:33:17.901Z,100925.84
2022-11-20T10:43:27.214Z,100901.59
2022-11-20T10:53:47.241Z,100884.28
2022-11-20T11:03:50.884Z,100861.94
2022-11-20T11:13:55.233Z,100859.63
2022-11-20T11:24:26.880Z,100853.03
2022-11-20T11:34:28.513Z,100846.06
2022-11-20T11:44:52.076Z,100823.75
2022-11-20T11:54:59.324Z,100807.56
2022-11-20T12:05:10.816Z,100784.09
2022-11-20T12:15:23.663Z,100734.75
2022-11-20T12:25:29.951Z,100719.28
2022-11-20T12:35:48.532Z,100708.38
2022-11-20T12:46:18.552Z,100688.53
2022-11-20T12:56:33.232Z,100652.09
2022-11-20T13:06:36.239Z,100617.41
2022-11-20T13:16:47.455Z,100617.28
2022-11-20T13:26:50.608Z,100598.34
2022-11-20T13:36:56.550Z,100569.34
2022-11-20T13:46:59.465Z,100542.06
2022-11-20T13:57:17.469Z,100539.31
2022-11-20T14:07:22.866Z,100524.56
2022-11-20T14:17:35.189Z,100503.72
2022-11-20T14:27:40.669Z,100495.22
2022-11-20T14:37:45.027Z,100486.13
2022-11-20T14:47:48.924Z,100466.94
2022-11-20T14:57:58.714Z,100421.47
2022-11-20T15:08:09.003Z,100397.91
2022-11-20T15:18:15.301Z,100377.72
2022-11-20T15:28:21.224Z,100363.00
2022-11-20T15:38:25.766Z,100342.97
2022-11-20T15:48:31.393Z,100322.84
2022-11-20T15:58:35.806Z,100299.22
2022-11-20T16:08:38.848Z,100279.38
2022-11-20T16:18:43.147Z,100269.59
2022-11-20T16:28:46.284Z,100269.31
2022-11-20T16:38:54.320Z,100249.78
2022-11-20T16:48:58.756Z,100208.25
2022-11-20T16:59:03.717Z,100185.91
2022-11-20T17:09:09.541Z,100185.53
2022-11-20T17:19:14.649Z,100139.53
2022-11-20T17:29:21.699Z,100116.03
2022-11-20T17:39:26.525Z,100119.53
2022-11-20T17:49:29.899Z,100131.63
2022-11-20T17:59:34.392Z,100156.16
2022-11-20T18:09:37.545Z,100186.97
2022-11-20T18:19:55.741Z,100200.19
2022-11-20T18:30:08.680Z,100228.84
2022-11-20T18:40:14.800Z,100215.91
2022-11-20T18:50:19.199Z,100216.94
2022-11-20T19:00:24.332Z,100225.66
2022-11-20T19:10:27.379Z,100241.28
2022-11-20T19:20:31.884Z,100251.41
2022-11-20T19:30:35.025Z,100255.84
2022-11-20T19:40:39.454Z,100268.78
2022-11-20T19:50:42.601Z,100265.81
2022-11-20T20:00:47.012Z,100271.56
2022-11-20T20:10:50.062Z,100271.94
2022-11-20T20:20:54.534Z,100287.53
2022-11-20T20:30:58.123Z,100291.69
2022-11-20T20:41:02.875Z,100289.25
2022-11-20T20:51:08.672Z,100306.09
2022-11-20T21:01:15.982Z,100321.78
2022-11-20T21:11:21.103Z,100320.16
2022-11-20T21:21:42.859Z,100326.75
2022-11-20T21:31:46.035Z,100324.81
2022-11-20T21:41:50.327Z,100350.38
2022-11-20T21:51:53.785Z,100352.84
2022-11-20T22:01:58.156Z,100343.75
2022-11-20T22:12:01.149Z,100353.59
2022-11-20T22:22:05.423Z,100367.25
2022-11-20T22:32:08.336Z,100406.31
2022-11-20T22:42:12.624Z,100382.50
2022-11-20T22:52:15.598Z,100382.16
2022-11-20T23:02:19.853Z,100401.16
2022-11-20T23:12:22.772Z,100467.16
2022-11-20T23:22:27.032Z,100436.50
2022-11-20T23:32:29.977Z,100450.44
2022-11-20T23:42:34.325Z,100443.63
2022-11-20T23:52:37.342Z,100448.28
